sensor_id;sensor_type;location;lat;lon;timestamp;pressure;altitude;pressure_sealevel;temperature;humidity
19795;BME280;10057;59.402;17.866;2023-05-03T00:00:14;101609.91;;;6.54;55.48
19795;BME280;10057;59.402;17.866;2023-05-03T00:02:43;101618.69;;;6.54;55.52
19795;BME280;10057;59.402;17.866;2023-05-03T00:05:10;101622.19;;;6.52;55.39
19795;BME280;10057;59.402;17.866;2023-05-03T00:07:45;101623.09;;;6.49;55.70
19795;BME280;10057;59.402;17.866;2023-05-03T00:10:13;101612.59;;;6.46;55.31
19795;BME280;10057;59.402;17.866;2023-05-03T00:12:42;101623.16;;;6.43;55.42
19795;BME280;10057;59.402;17.866;2023-05-03T00:15:09;101624.91;;;6.38;55.98
19795;BME280;10057;59.402;17.866;2023-05-03T00:17:36;101629.31;;;6.37;55.59
19795;BME280;10057;59.402;17.866;2023-05-03T00:20:04;101631.97;;;6.36;56.07
19795;BME280;10057;59.402;17.866;2023-05-03T00:22:31;101627.56;;;6.35;56.15
19795;BME280;10057;59.402;17.866;2023-05-03T00:24:58;101631.09;;;6.32;55.91
19795;BME280;10057;59.402;17.866;2023-05-03T00:27:25;101632.00;;;6.28;55.93
19795;BME280;10057;59.402;17.866;2023-05-03T00:29:52;101640.81;;;6.24;56.02
19795;BME280;10057;59.402;17.866;2023-05-03T00:32:21;101641.69;;;6.25;56.27
19795;BME280;10057;59.402;17.866;2023-05-03T00:34:52;101631.13;;;6.25;56.65
19795;BME280;10057;59.402;17.866;2023-05-03T00:37:20;101628.53;;;6.18;56.34
19795;BME280;10057;59.402;17.866;2023-05-03T00:39:47;101630.34;;;6.10;57.08
19795;BME280;10057;59.402;17.866;2023-05-03T00:42:14;101625.09;;;5.98;56.91
19795;BME280;10057;59.402;17.866;2023-05-03T00:44:41;101633.88;;;5.91;57.34
19795;BME280;10057;59.402;17.866;2023-05-03T00:47:08;101641.84;;;5.85;57.41
19795;BME280;10057;59.402;17.866;2023-05-03T00:49:35;101645.34;;;5.78;57.38
19795;BME280;10057;59.402;17.866;2023-05-03T00:52:02;101647.16;;;5.68;57.40
19795;BME280;10057;59.402;17.866;2023-05-03T00:54:29;101648.91;;;5.63;57.62
19795;BME280;10057;59.402;17.866;2023-05-03T00:56:56;101651.56;;;5.58;57.72
19795;BME280;10057;59.402;17.866;2023-05-03T00:59:23;101653.31;;;5.56;58.10
19795;BME280;10057;59.402;17.866;2023-05-03T01:01:51;101648.94;;;5.52;57.98
19795;BME280;10057;59.402;17.866;2023-05-03T01:04:19;101659.47;;;5.44;58.59
19795;BME280;10057;59.402;17.866;2023-05-03T01:06:54;101663.84;;;5.36;58.84
19795;BME280;10057;59.402;17.866;2023-05-03T01:09:45;101664.75;;;5.31;59.00
19795;BME280;10057;59.402;17.866;2023-05-03T01:12:27;101661.25;;;5.26;58.77
19795;BME280;10057;59.402;17.866;2023-05-03T01:17:55;101670.03;;;5.21;59.35
19795;BME280;10057;59.402;17.866;2023-05-03T01:20:25;101672.66;;;5.20;59.09
19795;BME280;10057;59.402;17.866;2023-05-03T01:23:00;101671.75;;;5.19;58.81
19795;BME280;10057;59.402;17.866;2023-05-03T01:25:30;101675.28;;;5.18;59.34
19795;BME280;10057;59.402;17.866;2023-05-03T01:27:58;101671.78;;;5.16;59.12
19795;BME280;10057;59.402;17.866;2023-05-03T01:30:27;101678.78;;;5.17;59.63
19795;BME280;10057;59.402;17.866;2023-05-03T01:33:15;101677.91;;;5.15;59.83
19795;BME280;10057;59.402;17.866;2023-05-03T01:38:20;101684.94;;;5.10;60.07
19795;BME280;10057;59.402;17.866;2023-05-03T01:40:51;101681.41;;;5.05;60.19
19795;BME280;10057;59.402;17.866;2023-05-03T01:43:18;101687.53;;;5.09;60.40
19795;BME280;10057;59.402;17.866;2023-05-03T01:45:46;101690.19;;;5.07;59.91
19795;BME280;10057;59.402;17.866;2023-05-03T01:48:15;101690.19;;;5.07;60.10
19795;BME280;10057;59.402;17.866;2023-05-03T01:50:42;101690.19;;;5.10;60.03
19795;BME280;10057;59.402;17.866;2023-05-03T01:53:09;101693.69;;;5.12;60.25
19795;BME280;10057;59.402;17.866;2023-05-03T01:55:36;101694.56;;;5.17;60.12
19795;BME280;10057;59.402;17.866;2023-05-03T01:58:03;101688.44;;;5.20;60.38
19795;BME280;10057;59.402;17.866;2023-05-03T02:00:29;101684.03;;;5.22;60.02
19795;BME280;10057;59.402;17.866;2023-05-03T02:02:56;101685.78;;;5.29;60.22
19795;BME280;10057;59.402;17.866;2023-05-03T02:05:25;101684.91;;;5.33;59.80
19795;BME280;10057;59.402;17.866;2023-05-03T02:07:52;101684.91;;;5.36;59.92
19795;BME280;10057;59.402;17.866;2023-05-03T02:10:19;101690.19;;;5.41;60.10
19795;BME280;10057;59.402;17.866;2023-05-03T02:12:46;101692.81;;;5.41;59.79
19795;BME280;10057;59.402;17.866;2023-05-03T02:15:12;101691.06;;;5.41;59.93
19795;BME280;10057;59.402;17.866;2023-05-03T02:17:41;101688.41;;;5.40;59.86
19795;BME280;10057;59.402;17.866;2023-05-03T02:20:08;101683.16;;;5.40;59.75
19795;BME280;10057;59.402;17.866;2023-05-03T02:22:38;101684.94;;;5.35;59.84
19795;BME280;10057;59.402;17.866;2023-05-03T02:25:04;101687.53;;;5.33;59.54
19795;BME280;10057;59.402;17.866;2023-05-03T02:27:32;101692.84;;;5.30;59.65
19795;BME280;10057;59.402;17.866;2023-05-03T02:29:59;101690.19;;;5.29;59.54
19795;BME280;10057;59.402;17.866;2023-05-03T02:32:27;101697.22;;;5.27;59.59
19795;BME280;10057;59.402;17.866;2023-05-03T02:34:53;101702.47;;;5.23;59.79
19795;BME280;10057;59.402;17.866;2023-05-03T02:37:20;101691.09;;;5.23;59.96
19795;BME280;10057;59.402;17.866;2023-05-03T02:39:47;101695.47;;;5.21;60.14
19795;BME280;10057;59.402;17.866;2023-05-03T02:42:14;101696.34;;;5.20;59.56
19795;BME280;10057;59.402;17.866;2023-05-03T02:44:41;101698.06;;;5.19;60.12
19795;BME280;10057;59.402;17.866;2023-05-03T02:47:09;101698.06;;;5.19;60.12
19795;BME280;10057;59.402;17.866;2023-05-03T02:49:35;101703.34;;;5.18;59.70
19795;BME280;10057;59.402;17.866;2023-05-03T02:52:02;101702.47;;;5.20;60.32
19795;BME280;10057;59.402;17.866;2023-05-03T02:54:29;101702.47;;;5.23;60.00
19795;BME280;10057;59.402;17.866;2023-05-03T02:56:56;101705.09;;;5.23;59.96
19795;BME280;10057;59.402;17.866;2023-05-03T02:59:23;101704.25;;;5.23;60.55
19795;BME280;10057;59.402;17.866;2023-05-03T03:01:50;101718.25;;;5.25;60.68
19795;BME280;10057;59.402;17.866;2023-05-03T03:04:16;101711.22;;;5.22;60.42
19795;BME280;10057;59.402;17.866;2023-05-03T03:06:43;101720.91;;;5.20;60.20
19795;BME280;10057;59.402;17.866;2023-05-03T03:09:10;101720.00;;;5.18;60.32
19795;BME280;10057;59.402;17.866;2023-05-03T03:11:37;101721.78;;;5.16;60.77
19795;BME280;10057;59.402;17.866;2023-05-03T03:14:04;101715.63;;;5.13;60.24
19795;BME280;10057;59.402;17.866;2023-05-03T03:16:31;101721.75;;;5.09;60.47
19795;BME280;10057;59.402;17.866;2023-05-03T03:18:58;101718.22;;;5.02;60.66
19795;BME280;10057;59.402;17.866;2023-05-03T03:21:25;101720.84;;;4.94;60.58
19795;BME280;10057;59.402;17.866;2023-05-03T03:23:52;101726.97;;;4.92;60.57
19795;BME280;10057;59.402;17.866;2023-05-03T03:26:18;101725.22;;;4.91;60.98
19795;BME280;10057;59.402;17.866;2023-05-03T03:28:45;101734.00;;;4.93;61.23
19795;BME280;10057;59.402;17.866;2023-05-03T03:31:12;101740.13;;;4.92;60.68
19795;BME280;10057;59.402;17.866;2023-05-03T03:33:38;101741.03;;;4.94;61.25
19795;BME280;10057;59.402;17.866;2023-05-03T03:36:06;101742.78;;;4.93;61.38
19795;BME280;10057;59.402;17.866;2023-05-03T03:38:33;101748.03;;;4.96;60.99
19795;BME280;10057;59.402;17.866;2023-05-03T03:41:00;101749.81;;;4.96;61.16
19795;BME280;10057;59.402;17.866;2023-05-03T03:43:27;101745.41;;;4.93;61.55
19795;BME280;10057;59.402;17.866;2023-05-03T03:45:53;101748.03;;;4.95;61.37
19795;BME280;10057;59.402;17.866;2023-05-03T03:48:20;101748.03;;;4.95;61.32
19795;BME280;10057;59.402;17.866;2023-05-03T03:50:46;101739.28;;;4.96;61.48
19795;BME280;10057;59.402;17.866;2023-05-03T03:53:13;101747.16;;;5.01;61.29
19795;BME280;10057;59.402;17.866;2023-05-03T03:55:40;101742.78;;;5.04;61.54
19795;BME280;10057;59.402;17.866;2023-05-03T03:58:07;101756.84;;;5.06;61.33
19795;BME280;10057;59.402;17.866;2023-05-03T04:00:34;101755.06;;;5.04;61.52
19795;BME280;10057;59.402;17.866;2023-05-03T04:03:03;101756.81;;;5.03;61.84
19795;BME280;10057;59.402;17.866;2023-05-03T04:05:33;101762.09;;;5.03;62.00
19795;BME280;10057;59.402;17.866;2023-05-03T04:08:00;101769.97;;;5.05;61.69
19795;BME280;10057;59.402;17.866;2023-05-03T04:10:26;101759.47;;;5.03;62.20
19795;BME280;10057;59.402;17.866;2023-05-03T04:12:53;101769.97;;;5.02;62.11
19795;BME280;10057;59.402;17.866;2023-05-03T04:15:21;101760.31;;;4.99;61.92
19795;BME280;10057;59.402;17.866;2023-05-03T04:17:47;101773.47;;;5.01;62.40
19795;BME280;10057;59.402;17.866;2023-05-03T04:20:15;101775.22;;;5.00;62.33
19795;BME280;10057;59.402;17.866;2023-05-03T04:22:43;101768.22;;;5.01;62.12
19795;BME280;10057;59.402;17.866;2023-05-03T04:25:12;101772.59;;;5.03;61.87
19795;BME280;10057;59.402;17.866;2023-05-03T04:27:46;101787.50;;;5.09;62.10
19795;BME280;10057;59.402;17.866;2023-05-03T04:30:13;101785.75;;;5.12;62.00
19795;BME280;10057;59.402;17.866;2023-05-03T04:32:41;101790.16;;;5.16;61.76
19795;BME280;10057;59.402;17.866;2023-05-03T04:35:09;101790.16;;;5.18;62.27
19795;BME280;10057;59.402;17.866;2023-05-03T04:37:36;101792.78;;;5.19;61.67
19795;BME280;10057;59.402;17.866;2023-05-03T04:40:04;101796.31;;;5.25;60.91
19795;BME280;10057;59.402;17.866;2023-05-03T04:42:34;101798.06;;;5.29;61.15
19795;BME280;10057;59.402;17.866;2023-05-03T04:45:02;101800.72;;;5.32;60.90
19795;BME280;10057;59.402;17.866;2023-05-03T04:47:29;101800.69;;;5.36;60.66
19795;BME280;10057;59.402;17.866;2023-05-03T04:49:56;101804.22;;;5.40;60.56
19795;BME280;10057;59.402;17.866;2023-05-03T04:52:24;101806.84;;;5.38;60.77
19795;BME280;10057;59.402;17.866;2023-05-03T04:54:51;101808.63;;;5.38;60.53
19795;BME280;10057;59.402;17.866;2023-05-03T04:57:17;101810.34;;;5.36;60.10
19795;BME280;10057;59.402;17.866;2023-05-03T04:59:44;101815.63;;;5.39;60.11
19795;BME280;10057;59.402;17.866;2023-05-03T05:02:11;101820.00;;;5.40;60.44
19795;BME280;10057;59.402;17.866;2023-05-03T05:04:38;101815.63;;;5.43;59.66
19795;BME280;10057;59.402;17.866;2023-05-03T05:07:05;101822.63;;;5.43;59.88
19795;BME280;10057;59.402;17.866;2023-05-03T05:09:32;101821.78;;;5.41;59.77
19795;BME280;10057;59.402;17.866;2023-05-03T05:11:58;101827.91;;;5.41;59.79
19795;BME280;10057;59.402;17.866;2023-05-03T05:14:25;101828.78;;;5.42;59.63
19795;BME280;10057;59.402;17.866;2023-05-03T05:16:53;101838.44;;;5.49;59.68
19795;BME280;10057;59.402;17.866;2023-05-03T05:19:20;101834.06;;;5.56;59.44
19795;BME280;10057;59.402;17.866;2023-05-03T05:21:47;101838.44;;;5.60;59.31
19795;BME280;10057;59.402;17.866;2023-05-03T05:24:13;101841.97;;;5.65;58.77
19795;BME280;10057;59.402;17.866;2023-05-03T05:26:41;101840.22;;;5.65;59.24
19795;BME280;10057;59.402;17.866;2023-05-03T05:29:09;101840.22;;;5.68;58.98
19795;BME280;10057;59.402;17.866;2023-05-03T05:31:36;101839.34;;;5.73;59.50
19795;BME280;10057;59.402;17.866;2023-05-03T05:34:02;101838.47;;;5.75;59.09
19795;BME280;10057;59.402;17.866;2023-05-03T05:36:29;101842.84;;;5.78;58.79
19795;BME280;10057;59.402;17.866;2023-05-03T05:38:56;101844.63;;;5.76;58.46
19795;BME280;10057;59.402;17.866;2023-05-03T05:41:23;101856.91;;;5.77;58.71
19795;BME280;10057;59.402;17.866;2023-05-03T05:43:50;101848.09;;;5.78;58.57
19795;BME280;10057;59.402;17.866;2023-05-03T05:46:16;101849.91;;;5.85;58.43
19795;BME280;10057;59.402;17.866;2023-05-03T05:48:46;101849.91;;;5.92;58.21
19795;BME280;10057;59.402;17.866;2023-05-03T05:51:13;101855.19;;;5.97;58.68
19795;BME280;10057;59.402;17.866;2023-05-03T05:53:39;101847.28;;;5.99;58.21
19795;BME280;10057;59.402;17.866;2023-05-03T05:56:06;101859.56;;;6.01;58.10
19795;BME280;10057;59.402;17.866;2023-05-03T05:58:35;101854.28;;;6.10;58.05
19795;BME280;10057;59.402;17.866;2023-05-03T06:01:02;101865.69;;;6.22;57.76
19795;BME280;10057;59.402;17.866;2023-05-03T06:03:30;101861.31;;;6.19;57.89
19795;BME280;10057;59.402;17.866;2023-05-03T06:05:57;101860.44;;;6.14;57.56
19795;BME280;10057;59.402;17.866;2023-05-03T06:08:24;101863.94;;;6.14;57.15
19795;BME280;10057;59.402;17.866;2023-05-03T06:10:51;101863.06;;;6.20;57.79
19795;BME280;10057;59.402;17.866;2023-05-03T06:13:18;101867.47;;;6.26;57.77
19795;BME280;10057;59.402;17.866;2023-05-03T06:15:45;101862.16;;;6.32;57.96
19795;BME280;10057;59.402;17.866;2023-05-03T06:18:12;101872.69;;;6.43;57.38
19795;BME280;10057;59.402;17.866;2023-05-03T06:20:38;101876.22;;;6.46;57.05
19795;BME280;10057;59.402;17.866;2023-05-03T06:23:05;101874.44;;;6.51;56.51
19795;BME280;10057;59.402;17.866;2023-05-03T06:25:32;101879.69;;;6.60;57.29
19795;BME280;10057;59.402;17.866;2023-05-03T06:27:58;101877.88;;;6.73;57.63
19795;BME280;10057;59.402;17.866;2023-05-03T06:30:25;101876.06;;;6.83;57.46
19795;BME280;10057;59.402;17.866;2023-05-03T06:32:54;101883.09;;;6.92;56.64
19795;BME280;10057;59.402;17.866;2023-05-03T06:35:20;101882.22;;;6.89;56.34
19795;BME280;10057;59.402;17.866;2023-05-03T06:37:47;101883.09;;;6.90;56.21
19795;BME280;10057;59.402;17.866;2023-05-03T06:40:15;101882.19;;;6.93;56.02
19795;BME280;10057;59.402;17.866;2023-05-03T06:42:41;101893.59;;;7.02;56.20
19795;BME280;10057;59.402;17.866;2023-05-03T06:45:08;101891.78;;;7.10;56.34
19795;BME280;10057;59.402;17.866;2023-05-03T06:47:35;101889.09;;;7.21;55.73
19795;BME280;10057;59.402;17.866;2023-05-03T06:50:03;101899.66;;;7.26;55.19
19795;BME280;10057;59.402;17.866;2023-05-03T06:52:30;101895.28;;;7.25;54.67
19795;BME280;10057;59.402;17.866;2023-05-03T06:54:57;101904.03;;;7.27;55.03
19795;BME280;10057;59.402;17.866;2023-05-03T06:57:24;101911.06;;;7.35;55.45
19795;BME280;10057;59.402;17.866;2023-05-03T06:59:54;101908.31;;;7.48;55.44
19795;BME280;10057;59.402;17.866;2023-05-03T07:02:20;101905.66;;;7.52;55.11
19795;BME280;10057;59.402;17.866;2023-05-03T07:04:48;101911.81;;;7.56;54.81
19795;BME280;10057;59.402;17.866;2023-05-03T07:07:15;101907.38;;;7.59;54.46
19795;BME280;10057;59.402;17.866;2023-05-03T07:09:42;101920.56;;;7.64;54.60
19795;BME280;10057;59.402;17.866;2023-05-03T07:12:09;101913.47;;;7.71;54.70
19795;BME280;10057;59.402;17.866;2023-05-03T07:14:37;101916.06;;;7.80;54.31
19795;BME280;10057;59.402;17.866;2023-05-03T07:17:05;101919.56;;;7.83;53.96
19795;BME280;10057;59.402;17.866;2023-05-03T07:19:32;101927.44;;;7.88;53.99
19795;BME280;10057;59.402;17.866;2023-05-03T07:21:58;101928.22;;;7.99;54.33
19795;BME280;10057;59.402;17.866;2023-05-03T07:24:25;101925.53;;;8.07;53.78
19795;BME280;10057;59.402;17.866;2023-05-03T07:26:52;101929.91;;;8.11;53.70
19795;BME280;10057;59.402;17.866;2023-05-03T07:29:19;101935.19;;;8.11;53.67
19795;BME280;10057;59.402;17.866;2023-05-03T07:31:46;101931.59;;;8.17;53.97
19795;BME280;10057;59.402;17.866;2023-05-03T07:34:13;101936.84;;;8.23;53.64
19795;BME280;10057;59.402;17.866;2023-05-03T07:36:40;101929.72;;;8.32;53.28
19795;BME280;10057;59.402;17.866;2023-05-03T07:39:07;101940.16;;;8.49;53.58
19795;BME280;10057;59.402;17.866;2023-05-03T07:41:34;101932.84;;;8.74;53.45
19795;BME280;10057;59.402;17.866;2023-05-03T07:44:00;101938.63;;;9.09;53.23
19795;BME280;10057;59.402;17.866;2023-05-03T07:46:27;101943.63;;;9.33;51.75
19795;BME280;10057;59.402;17.866;2023-05-03T07:48:54;101949.75;;;9.38;50.94
19795;BME280;10057;59.402;17.866;2023-05-03T07:51:21;101951.50;;;9.41;49.94
19795;BME280;10057;59.402;17.866;2023-05-03T07:53:48;101958.69;;;9.31;49.87
19795;BME280;10057;59.402;17.866;2023-05-03T07:56:14;101955.34;;;9.17;49.81
19795;BME280;10057;59.402;17.866;2023-05-03T07:58:41;101958.16;;;8.98;49.56
19795;BME280;10057;59.402;17.866;2023-05-03T08:01:11;101965.28;;;8.95;48.90
19795;BME280;10057;59.402;17.866;2023-05-03T08:03:39;101968.84;;;8.91;48.37
19795;BME280;10057;59.402;17.866;2023-05-03T08:06:06;101968.84;;;8.91;49.30
19795;BME280;10057;59.402;17.866;2023-05-03T08:08:33;101974.91;;;9.02;48.82
19795;BME280;10057;59.402;17.866;2023-05-03T08:11:01;101979.25;;;9.08;47.90
19795;BME280;10057;59.402;17.866;2023-05-03T08:13:28;101972.19;;;9.08;48.63
19795;BME280;10057;59.402;17.866;2023-05-03T08:15:55;101969.53;;;9.10;47.86
19795;BME280;10057;59.402;17.866;2023-05-03T08:18:22;101981.88;;;9.11;46.22
19795;BME280;10057;59.402;17.866;2023-05-03T08:20:49;101972.22;;;9.07;46.37
19795;BME280;10057;59.402;17.866;2023-05-03T08:23:16;101981.06;;;9.04;46.83
19795;BME280;10057;59.402;17.866;2023-05-03T08:25:43;101980.09;;;9.13;47.25
19795;BME280;10057;59.402;17.866;2023-05-03T08:28:10;101977.28;;;9.27;47.37
19795;BME280;10057;59.402;17.866;2023-05-03T08:30:37;101976.34;;;9.29;46.45
19795;BME280;10057;59.402;17.866;2023-05-03T08:33:04;101981.72;;;9.23;46.49
19795;BME280;10057;59.402;17.866;2023-05-03T08:35:31;101975.41;;;9.33;47.42
19795;BME280;10057;59.402;17.866;2023-05-03T08:37:58;101984.16;;;9.41;47.07
19795;BME280;10057;59.402;17.866;2023-05-03T08:40:26;101979.69;;;9.45;47.51
19795;BME280;10057;59.402;17.866;2023-05-03T08:42:54;101994.56;;;9.55;47.74
19795;BME280;10057;59.402;17.866;2023-05-03T08:45:22;101996.28;;;9.59;46.88
19795;BME280;10057;59.402;17.866;2023-05-03T08:47:55;101999.88;;;9.55;46.66
19795;BME280;10057;59.402;17.866;2023-05-03T08:50:21;101999.03;;;9.52;47.24
19795;BME280;10057;59.402;17.866;2023-05-03T08:52:49;102000.66;;;9.62;48.14
19795;BME280;10057;59.402;17.866;2023-05-03T08:55:16;102006.69;;;9.73;47.29
19795;BME280;10057;59.402;17.866;2023-05-03T08:57:43;102004.91;;;9.73;46.47
19795;BME280;10057;59.402;17.866;2023-05-03T09:00:10;101998.63;;;9.81;46.43
19795;BME280;10057;59.402;17.866;2023-05-03T09:02:38;101998.63;;;9.82;46.11
19795;BME280;10057;59.402;17.866;2023-05-03T09:08:04;102003.81;;;9.91;46.50
19795;BME280;10057;59.402;17.866;2023-05-03T09:10:34;102006.28;;;10.02;46.21
19795;BME280;10057;59.402;17.866;2023-05-03T09:13:02;102007.75;;;10.21;46.26
19795;BME280;10057;59.402;17.866;2023-05-03T09:15:29;102011.06;;;10.37;45.62
19795;BME280;10057;59.402;17.866;2023-05-03T09:20:36;102007.84;;;10.71;46.42
19795;BME280;10057;59.402;17.866;2023-05-03T09:23:05;102014.44;;;10.97;46.46
19795;BME280;10057;59.402;17.866;2023-05-03T09:28:15;102012.81;;;11.34;45.69
19795;BME280;10057;59.402;17.866;2023-05-03T09:30:43;102013.75;;;11.33;44.76
19795;BME280;10057;59.402;17.866;2023-05-03T09:33:10;102019.22;;;11.26;44.71
19795;BME280;10057;59.402;17.866;2023-05-03T09:35:37;102020.78;;;11.34;45.57
19795;BME280;10057;59.402;17.866;2023-05-03T09:38:04;102028.56;;;11.45;44.02
19795;BME280;10057;59.402;17.866;2023-05-03T09:40:31;102029.41;;;11.47;44.84
19795;BME280;10057;59.402;17.866;2023-05-03T09:43:09;102019.41;;;11.58;43.25
19795;BME280;10057;59.402;17.866;2023-05-03T09:45:37;102027.72;;;11.43;42.23
19795;BME280;10057;59.402;17.866;2023-05-03T09:48:05;102027.09;;;11.30;42.09
19795;BME280;10057;59.402;17.866;2023-05-03T09:50:33;102020.13;;;11.25;42.58
19795;BME280;10057;59.402;17.866;2023-05-03T09:53:03;102027.81;;;11.38;42.97
19795;BME280;10057;59.402;17.866;2023-05-03T09:55:36;102031.66;;;11.67;43.01
19795;BME280;10057;59.402;17.866;2023-05-03T09:58:05;102027.94;;;11.74;42.21
19795;BME280;10057;59.402;17.866;2023-05-03T10:00:40;102028.88;;;11.73;41.91
19795;BME280;10057;59.402;17.866;2023-05-03T10:03:10;102028.66;;;11.82;42.70
19795;BME280;10057;59.402;17.866;2023-05-03T10:05:45;102023.78;;;12.03;42.63
19795;BME280;10057;59.402;17.866;2023-05-03T10:08:24;102029.38;;;12.29;42.15
19795;BME280;10057;59.402;17.866;2023-05-03T10:10:53;102022.19;;;12.35;41.17
19795;BME280;10057;59.402;17.866;2023-05-03T10:13:21;102029.38;;;12.31;40.36
19795;BME280;10057;59.402;17.866;2023-05-03T10:15:52;102026.91;;;12.22;40.79
19795;BME280;10057;59.402;17.866;2023-05-03T10:18:22;102023.03;;;12.35;41.56
19795;BME280;10057;59.402;17.866;2023-05-03T10:20:57;102024.56;;;12.45;39.99
19795;BME280;10057;59.402;17.866;2023-05-03T10:23:26;102030.56;;;12.18;38.76
19795;BME280;10057;59.402;17.866;2023-05-03T10:28:37;102023.59;;;12.12;40.28
19795;BME280;10057;59.402;17.866;2023-05-03T10:31:04;102025.59;;;12.40;40.54
19795;BME280;10057;59.402;17.866;2023-05-03T10:33:31;102031.88;;;12.73;40.79
19795;BME280;10057;59.402;17.866;2023-05-03T10:36:07;102041.47;;;12.78;38.57
19795;BME280;10057;59.402;17.866;2023-05-03T10:38:38;102031.97;;;12.68;39.67
19795;BME280;10057;59.402;17.866;2023-05-03T10:41:05;102039.44;;;12.88;40.51
19795;BME280;10057;59.402;17.866;2023-05-03T10:46:03;102037.13;;;13.41;39.26
19795;BME280;10057;59.402;17.866;2023-05-03T10:48:32;102037.22;;;13.38;39.56
19795;BME280;10057;59.402;17.866;2023-05-03T10:51:34;102037.94;;;13.43;38.66
19795;BME280;10057;59.402;17.866;2023-05-03T10:54:04;102044.34;;;13.38;38.23
19795;BME280;10057;59.402;17.866;2023-05-03T10:56:30;102052.06;;;13.14;37.84
19795;BME280;10057;59.402;17.866;2023-05-03T10:58:57;102050.94;;;13.23;39.05
19795;BME280;10057;59.402;17.866;2023-05-03T11:01:25;102052.91;;;13.49;38.82
19795;BME280;10057;59.402;17.866;2023-05-03T11:04:11;102043.81;;;13.56;38.67
19795;BME280;10057;59.402;17.866;2023-05-03T11:06:40;102045.13;;;13.72;38.69
19795;BME280;10057;59.402;17.866;2023-05-03T11:09:08;102048.41;;;13.51;36.82
19795;BME280;10057;59.402;17.866;2023-05-03T11:11:38;102052.28;;;13.07;36.42
19795;BME280;10057;59.402;17.866;2023-05-03T11:14:09;102048.72;;;12.73;37.63
19795;BME280;10057;59.402;17.866;2023-05-03T11:16:37;102057.56;;;12.74;37.30
19795;BME280;10057;59.402;17.866;2023-05-03T11:19:13;102064.97;;;12.63;37.42
19795;BME280;10057;59.402;17.866;2023-05-03T11:21:41;102053.47;;;12.61;36.67
19795;BME280;10057;59.402;17.866;2023-05-03T11:24:08;102057.84;;;12.63;37.33
19795;BME280;10057;59.402;17.866;2023-05-03T11:26:38;102054.03;;;12.73;36.84
19795;BME280;10057;59.402;17.866;2023-05-03T11:29:05;102062.03;;;12.73;37.34
19795;BME280;10057;59.402;17.866;2023-05-03T11:31:31;102065.53;;;12.75;35.96
19795;BME280;10057;59.402;17.866;2023-05-03T11:33:58;102065.19;;;12.53;36.10
19795;BME280;10057;59.402;17.866;2023-05-03T11:36:25;102063.03;;;12.32;36.44
19795;BME280;10057;59.402;17.866;2023-05-03T11:38:53;102062.31;;;12.24;37.03
19795;BME280;10057;59.402;17.866;2023-05-03T11:41:20;102066.34;;;12.42;37.53
19795;BME280;10057;59.402;17.866;2023-05-03T11:43:48;102053.31;;;12.67;37.74
19795;BME280;10057;59.402;17.866;2023-05-03T11:46:32;102063.13;;;12.99;37.38
19795;BME280;10057;59.402;17.866;2023-05-03T11:49:00;102060.91;;;13.16;36.27
19795;BME280;10057;59.402;17.866;2023-05-03T11:51:28;102064.38;;;13.20;36.09
19795;BME280;10057;59.402;17.866;2023-05-03T11:53:59;102063.31;;;13.27;35.56
19795;BME280;10057;59.402;17.866;2023-05-03T11:56:47;102061.81;;;13.15;34.57
19795;BME280;10057;59.402;17.866;2023-05-03T11:59:15;102057.63;;;13.05;34.94
19795;BME280;10057;59.402;17.866;2023-05-03T12:01:42;102070.06;;;13.06;34.90
19795;BME280;10057;59.402;17.866;2023-05-03T12:04:11;102045.59;;;13.24;35.86
19795;BME280;10057;59.402;17.866;2023-05-03T12:06:38;102061.91;;;13.45;35.60
19795;BME280;10057;59.402;17.866;2023-05-03T12:09:13;102060.91;;;13.49;35.84
19795;BME280;10057;59.402;17.866;2023-05-03T12:11:41;102068.47;;;13.64;35.94
19795;BME280;10057;59.402;17.866;2023-05-03T12:14:10;102061.63;;;13.85;36.05
19795;BME280;10057;59.402;17.866;2023-05-03T12:16:51;102068.91;;;14.08;35.93
19795;BME280;10057;59.402;17.866;2023-05-03T12:19:26;102063.22;;;14.20;35.83
19795;BME280;10057;59.402;17.866;2023-05-03T12:21:56;102080.88;;;14.25;35.76
19795;BME280;10057;59.402;17.866;2023-05-03T12:24:43;102070.28;;;14.21;34.45
19795;BME280;10057;59.402;17.866;2023-05-03T12:27:10;102080.75;;;13.99;33.84
19795;BME280;10057;59.402;17.866;2023-05-03T12:29:39;102075.78;;;13.87;34.56
19795;BME280;10057;59.402;17.866;2023-05-03T12:32:07;102079.19;;;13.92;34.80
19795;BME280;10057;59.402;17.866;2023-05-03T12:34:37;102077.66;;;14.13;34.58
19795;BME280;10057;59.402;17.866;2023-05-03T12:37:06;102089.13;;;14.17;34.53
19795;BME280;10057;59.402;17.866;2023-05-03T12:39:37;102079.91;;;14.27;34.01
19795;BME280;10057;59.402;17.866;2023-05-03T12:42:08;102077.81;;;14.37;34.19
19795;BME280;10057;59.402;17.866;2023-05-03T12:44:40;102080.19;;;14.46;33.50
19795;BME280;10057;59.402;17.866;2023-05-03T12:47:09;102068.47;;;14.52;34.04
19795;BME280;10057;59.402;17.866;2023-05-03T12:49:36;102078.66;;;14.67;34.24
19795;BME280;10057;59.402;17.866;2023-05-03T12:52:05;102075.78;;;14.73;33.24
19795;BME280;10057;59.402;17.866;2023-05-03T12:54:51;102083.00;;;14.69;33.05
19795;BME280;10057;59.402;17.866;2023-05-03T12:57:21;102072.56;;;14.63;33.57
19795;BME280;10057;59.402;17.866;2023-05-03T12:59:50;102069.13;;;14.60;32.52
19795;BME280;10057;59.402;17.866;2023-05-03T13:02:25;102071.75;;;14.32;32.58
19795;BME280;10057;59.402;17.866;2023-05-03T13:04:55;102070.28;;;14.21;33.24
19795;BME280;10057;59.402;17.866;2023-05-03T13:07:26;102071.91;;;14.27;32.88
19795;BME280;10057;59.402;17.866;2023-05-03T13:09:57;102069.81;;;14.37;33.12
19795;BME280;10057;59.402;17.866;2023-05-03T13:12:27;102072.06;;;14.22;32.83